Time;durP1;ratioP1;P1;durP2;ratioP2;P2;SDS_P1;SDS_P2;PMS_P1;PMS_P2;Temp;Humidity;BMP_temperature;BMP_pressure;BME280_temperature;BME280_humidity;BME280_pressure;Samples;Min_cycle;Max_cycle;Signal;HPM_P1;HPM_P2
2022/03/23 00:00:39;;;;;;;174.18;76.70;;;3.60;99.90;;;;;;4989484;28;20022;-51
2022/03/23 00:03:06;;;;;;;187.15;80.15;;;3.50;99.90;;;;;;4988376;28;20374;-52
2022/03/23 00:05:32;;;;;;;197.07;86.28;;;3.60;99.90;;;;;;4988920;28;20052;-52
2022/03/23 00:07:58;;;;;;;196.13;84.45;;;3.70;99.90;;;;;;4988531;28;20030;-53
2022/03/23 00:10:24;;;;;;;180.57;76.32;;;3.60;99.90;;;;;;4989083;28;20023;-52
2022/03/23 00:12:51;;;;;;;167.93;77.65;;;3.60;99.90;;;;;;4988197;28;20093;-51
2022/03/23 00:15:17;;;;;;;175.98;77.28;;;3.50;99.90;;;;;;4988988;28;20127;-49
2022/03/23 00:17:43;;;;;;;171.40;74.95;;;3.40;99.90;;;;;;4988613;28;20089;-51
2022/03/23 00:20:09;;;;;;;164.93;74.60;;;3.30;99.90;;;;;;4988570;28;20479;-51
2022/03/23 00:22:35;;;;;;;185.38;76.50;;;3.10;99.90;;;;;;4988146;28;20085;-52
2022/03/23 00:25:01;;;;;;;177.93;74.78;;;3.10;99.90;;;;;;4988623;28;20049;-52
2022/03/23 00:27:26;;;;;;;204.82;80.63;;;3.20;99.90;;;;;;4988133;28;20073;-51
2022/03/23 00:29:52;;;;;;;185.60;81.22;;;3.10;99.90;;;;;;4989719;28;20041;-52
2022/03/23 00:32:18;;;;;;;195.68;79.53;;;3.00;99.90;;;;;;4989580;28;20030;-51
2022/03/23 00:34:44;;;;;;;187.90;78.15;;;3.00;99.90;;;;;;4989335;28;20026;-51
2022/03/23 00:37:10;;;;;;;188.23;75.55;;;3.20;99.90;;;;;;4988983;28;20061;-52
2022/03/23 00:39:36;;;;;;;183.03;79.63;;;3.30;99.90;;;;;;4989718;28;20410;-52
2022/03/23 00:42:02;;;;;;;198.95;84.13;;;3.20;99.90;;;;;;4989272;28;20278;-52
2022/03/23 00:44:28;;;;;;;200.75;87.05;;;2.70;99.90;;;;;;4988918;28;20450;-51
2022/03/23 00:46:53;;;;;;;192.70;84.68;;;2.70;99.90;;;;;;4988368;28;20043;-51
2022/03/23 00:49:19;;;;;;;186.60;86.07;;;2.70;99.90;;;;;;4988081;28;20030;-52
2022/03/23 00:51:45;;;;;;;198.13;88.07;;;2.50;99.90;;;;;;4987991;28;20109;-51
2022/03/23 00:54:11;;;;;;;198.73;85.68;;;2.50;99.90;;;;;;4987606;28;20038;-52
2022/03/23 00:56:37;;;;;;;218.48;91.65;;;2.60;99.90;;;;;;4978432;28;20148;-51
2022/03/23 00:59:03;;;;;;;219.85;95.50;;;2.60;99.90;;;;;;4985281;28;20599;-51
2022/03/23 01:01:30;;;;;;;204.65;87.70;;;2.60;99.90;;;;;;4987929;28;20038;-50
2022/03/23 01:03:56;;;;;;;193.68;81.78;;;2.60;99.90;;;;;;4986929;28;20390;-52
2022/03/23 01:06:22;;;;;;;207.80;82.03;;;2.70;99.90;;;;;;4987999;28;20039;-51
2022/03/23 01:08:48;;;;;;;182.02;80.18;;;2.80;99.90;;;;;;4988140;28;20030;-49
2022/03/23 01:11:13;;;;;;;184.75;75.32;;;2.80;99.90;;;;;;4988410;28;21458;-50
2022/03/23 01:13:39;;;;;;;188.55;74.35;;;2.60;99.90;;;;;;4978789;28;20049;-53
2022/03/23 01:16:05;;;;;;;190.98;74.78;;;2.60;99.90;;;;;;4978779;28;20501;-51
2022/03/23 01:18:31;;;;;;;181.63;74.45;;;2.70;99.90;;;;;;4985519;28;20105;-51
2022/03/23 01:20:57;;;;;;;176.63;76.88;;;2.70;99.90;;;;;;4988246;28;20022;-52
2022/03/23 01:23:23;;;;;;;169.18;72.75;;;2.60;99.90;;;;;;4987397;28;20412;-51
2022/03/23 01:25:48;;;;;;;176.82;69.85;;;2.60;99.90;;;;;;4988723;28;20030;-50
2022/03/23 01:28:14;;;;;;;177.05;72.72;;;2.60;99.90;;;;;;4988749;28;20041;-50
2022/03/23 01:30:40;;;;;;;166.65;71.53;;;2.40;99.90;;;;;;4989097;28;20080;-51
2022/03/23 01:33:06;;;;;;;161.25;68.50;;;2.50;99.90;;;;;;4988434;28;20033;-53
2022/03/23 01:35:32;;;;;;;168.55;71.30;;;2.40;99.90;;;;;;4989526;28;20033;-52
2022/03/23 01:37:58;;;;;;;171.02;73.32;;;2.40;99.90;;;;;;4988891;28;20652;-54
2022/03/23 01:40:24;;;;;;;154.80;68.50;;;2.20;99.90;;;;;;4989204;28;20141;-51
2022/03/23 01:42:50;;;;;;;165.98;68.00;;;2.00;99.90;;;;;;4988292;28;20034;-53
2022/03/23 01:45:16;;;;;;;171.10;69.32;;;2.00;99.90;;;;;;4989057;28;20034;-51
2022/03/23 01:47:42;;;;;;;161.65;68.68;;;2.00;99.90;;;;;;4970943;28;20038;-54
2022/03/23 01:50:08;;;;;;;168.73;71.88;;;2.00;99.90;;;;;;4988821;28;20029;-55
2022/03/23 01:52:34;;;;;;;165.27;67.25;;;2.00;99.90;;;;;;4988283;28;20390;-50
2022/03/23 01:55:04;;;;;;;160.37;67.97;;;2.00;99.90;;;;;;4989024;28;20470;-50
2022/03/23 01:57:30;;;;;;;137.70;61.38;;;2.20;99.90;;;;;;4988772;28;20030;-55
2022/03/23 01:59:56;;;;;;;135.40;60.78;;;2.30;99.90;;;;;;4988682;28;20038;-51
2022/03/23 02:02:22;;;;;;;156.37;61.73;;;2.50;99.90;;;;;;4988530;28;20027;-52
2022/03/23 02:04:47;;;;;;;160.63;67.78;;;2.50;99.90;;;;;;4988756;28;20114;-52
2022/03/23 02:07:14;;;;;;;170.50;70.65;;;2.50;99.90;;;;;;4971198;28;20038;-52
2022/03/23 02:09:40;;;;;;;164.60;66.30;;;2.10;99.90;;;;;;4988573;28;20564;-52
2022/03/23 02:12:08;;;;;;;162.50;66.75;;;2.00;99.90;;;;;;4988508;28;20132;-51
2022/03/23 02:14:35;;;;;;;153.57;67.28;;;1.70;99.90;;;;;;4989621;28;20055;-51
2022/03/23 02:17:00;;;;;;;145.80;64.85;;;1.80;99.90;;;;;;4992674;28;20085;-52
2022/03/23 02:19:28;;;;;;;143.25;62.33;;;2.00;99.90;;;;;;4992586;28;20501;-52
2022/03/23 02:21:53;;;;;;;146.63;64.15;;;2.00;99.90;;;;;;4991967;28;20115;-51
2022/03/23 02:24:23;;;;;;;144.82;65.80;;;1.90;99.90;;;;;;4992357;28;20038;-50
2022/03/23 02:26:49;;;;;;;145.35;64.68;;;2.10;99.90;;;;;;4992356;28;20034;-51
2022/03/23 02:29:15;;;;;;;146.82;63.30;;;2.20;99.90;;;;;;4992104;28;20501;-51
2022/03/23 02:31:41;;;;;;;146.10;62.17;;;2.10;99.90;;;;;;4991860;28;20034;-51
2022/03/23 02:34:07;;;;;;;144.73;61.97;;;2.10;99.90;;;;;;4992093;28;20130;-51
2022/03/23 02:36:33;;;;;;;155.23;68.03;;;2.00;99.90;;;;;;4974655;28;20105;-52
2022/03/23 02:38:59;;;;;;;153.48;66.93;;;1.70;99.90;;;;;;4992188;28;20378;-52
2022/03/23 02:41:25;;;;;;;159.65;67.30;;;1.70;99.90;;;;;;4992199;28;20030;-52
2022/03/23 02:43:51;;;;;;;158.95;66.57;;;1.60;99.90;;;;;;4991324;28;20058;-51
2022/03/23 02:46:19;;;;;;;162.73;68.50;;;1.60;99.90;;;;;;4992091;28;20038;-51
2022/03/23 02:48:46;;;;;;;153.85;68.55;;;1.60;99.90;;;;;;4991815;28;20054;-51
2022/03/23 02:51:13;;;;;;;159.68;69.68;;;1.60;99.90;;;;;;4992042;28;20072;-52
2022/03/23 03:02:38;;;;;;;157.27;66.82;;;1.40;99.90;;;;;;4971652;28;20509;-52
2022/03/23 03:05:06;;;;;;;139.30;65.00;;;1.20;99.90;;;;;;4972378;28;20045;-52
2022/03/23 03:08:44;;;;;;;155.40;70.65;;;1.10;99.90;;;;;;4972222;28;20034;-52
2022/03/23 03:10:23;;;;;;;176.43;75.05;;;1.20;99.90;;;;;;4971790;28;20118;-52
2022/03/23 03:12:50;;;;;;;176.02;76.30;;;1.30;99.90;;;;;;4971124;28;20050;-52
2022/03/23 03:15:18;;;;;;;159.13;72.25;;;1.40;99.90;;;;;;4954470;28;20570;-52
2022/03/23 03:17:44;;;;;;;173.00;72.05;;;1.40;99.90;;;;;;4972335;28;20054;-52
2022/03/23 03:20:10;;;;;;;169.32;73.95;;;1.40;99.90;;;;;;4972090;28;20058;-56
2022/03/23 03:22:40;;;;;;;189.93;77.43;;;1.40;99.90;;;;;;4954011;28;20041;-53
2022/03/23 03:25:07;;;;;;;178.63;77.40;;;1.30;99.90;;;;;;4972130;28;20554;-53
2022/03/23 03:27:37;;;;;;;178.70;73.28;;;1.20;99.90;;;;;;4970751;28;20489;-52
2022/03/23 03:30:06;;;;;;;161.95;68.88;;;1.20;99.90;;;;;;4971842;28;20038;-51
2022/03/23 03:32:32;;;;;;;160.82;68.70;;;1.00;99.90;;;;;;4953806;28;20074;-52
2022/03/23 03:34:58;;;;;;;158.60;67.47;;;0.90;99.90;;;;;;4971877;28;20050;-51
2022/03/23 03:37:24;;;;;;;157.02;68.18;;;0.90;99.90;;;;;;4954079;28;20379;-51
2022/03/23 03:39:49;;;;;;;161.50;67.38;;;1.00;99.90;;;;;;4971543;28;20031;-51
2022/03/23 03:42:15;;;;;;;149.15;65.15;;;1.10;99.90;;;;;;4971219;28;20033;-52
2022/03/23 03:44:41;;;;;;;158.90;69.13;;;1.10;99.90;;;;;;4971228;28;20113;-52
2022/03/23 03:47:07;;;;;;;159.50;66.53;;;1.00;99.90;;;;;;4971628;28;20221;-52
2022/03/23 03:49:33;;;;;;;154.77;68.25;;;0.70;99.90;;;;;;4971296;28;20349;-53
2022/03/23 03:51:59;;;;;;;144.55;65.68;;;0.70;99.90;;;;;;4979505;28;20076;-52
2022/03/23 03:54:24;;;;;;;149.18;64.95;;;0.60;99.90;;;;;;4990703;28;20045;-52
2022/03/23 03:56:50;;;;;;;158.07;65.30;;;0.60;99.90;;;;;;4990085;28;20034;-52
2022/03/23 03:59:16;;;;;;;157.23;66.60;;;0.70;99.90;;;;;;4990873;28;20091;-52
2022/03/23 04:01:41;;;;;;;141.98;61.33;;;0.80;99.90;;;;;;4990283;28;20389;-52
2022/03/23 04:04:08;;;;;;;134.55;60.50;;;0.90;99.90;;;;;;4990594;28;20037;-52
2022/03/23 04:06:33;;;;;;;138.20;60.42;;;0.70;99.90;;;;;;4990442;28;20042;-52
2022/03/23 04:08:59;;;;;;;142.50;61.42;;;0.60;99.90;;;;;;4990851;28;20055;-53
2022/03/23 04:11:25;;;;;;;156.32;73.35;;;0.50;99.90;;;;;;4990289;28;20801;-52
2022/03/23 04:13:51;;;;;;;171.65;74.97;;;0.50;99.90;;;;;;4989634;28;20054;-52
2022/03/23 04:16:17;;;;;;;160.18;73.90;;;0.80;99.90;;;;;;4990707;28;20397;-53
2022/03/23 04:18:42;;;;;;;157.60;73.13;;;0.90;99.90;;;;;;4990429;28;20477;-53
2022/03/23 04:21:08;;;;;;;152.15;70.45;;;0.80;99.90;;;;;;4990403;28;20030;-53
2022/03/23 04:23:34;;;;;;;145.13;66.78;;;0.80;99.90;;;;;;4989475;28;20023;-53
2022/03/23 04:25:59;;;;;;;147.38;68.18;;;0.60;99.90;;;;;;4990077;28;20071;-51
2022/03/23 04:28:25;;;;;;;156.50;68.78;;;0.50;99.90;;;;;;4990301;28;20045;-52
2022/03/23 04:30:51;;;;;;;151.15;67.57;;;0.40;99.90;;;;;;4990445;28;20026;-52
2022/03/23 04:33:16;;;;;;;148.27;67.80;;;0.40;99.90;;;;;;4989653;28;20026;-52
2022/03/23 04:35:42;;;;;;;152.73;69.28;;;0.30;99.90;;;;;;4989737;28;20026;-52
2022/03/23 04:38:08;;;;;;;150.32;67.95;;;0.40;99.90;;;;;;4989641;28;20089;-53
2022/03/23 04:40:34;;;;;;;157.93;73.05;;;0.40;99.90;;;;;;4989639;28;20042;-50
2022/03/23 04:42:59;;;;;;;145.85;68.28;;;0.50;99.90;;;;;;4989208;28;20089;-53
2022/03/23 04:45:25;;;;;;;145.65;69.57;;;0.50;99.90;;;;;;4989701;28;20090;-51
2022/03/23 04:47:51;;;;;;;154.82;68.90;;;0.40;99.90;;;;;;4989471;28;20047;-52
2022/03/23 04:50:17;;;;;;;159.05;71.22;;;0.30;99.90;;;;;;4989779;28;20026;-51
2022/03/23 04:52:44;;;;;;;143.68;66.03;;;0.10;99.90;;;;;;4989271;28;20061;-52
2022/03/23 04:55:12;;;;;;;170.63;72.75;;;-0.20;99.90;;;;;;4989310;28;20603;-51
2022/03/23 04:57:38;;;;;;;152.25;72.80;;;-0.20;99.90;;;;;;4972145;28;20031;-51
2022/03/23 05:00:11;;;;;;;157.63;71.70;;;-0.20;99.90;;;;;;4989684;28;20034;-53
2022/03/23 05:02:41;;;;;;;160.68;72.88;;;-0.30;99.90;;;;;;4988974;28;20018;-52
2022/03/23 05:05:08;;;;;;;161.60;72.10;;;-0.10;99.90;;;;;;4989340;28;20030;-53
2022/03/23 05:07:34;;;;;;;152.55;71.35;;;0.10;99.90;;;;;;4989319;28;20069;-51
2022/03/23 05:10:00;;;;;;;158.18;72.07;;;0.30;99.90;;;;;;4989134;28;20030;-52
2022/03/23 05:12:26;;;;;;;155.77;70.22;;;0.40;99.90;;;;;;4988581;28;20034;-53
2022/03/23 05:14:52;;;;;;;156.50;71.03;;;0.40;99.90;;;;;;4988738;28;20030;-53
2022/03/23 05:17:17;;;;;;;163.13;71.68;;;0.50;99.90;;;;;;4989038;28;20030;-52
2022/03/23 05:19:44;;;;;;;167.55;77.13;;;0.50;99.90;;;;;;4971672;28;20041;-52
2022/03/23 05:22:11;;;;;;;159.63;74.95;;;0.40;99.90;;;;;;4988764;28;20069;-52
2022/03/23 05:24:37;;;;;;;145.30;68.53;;;0.30;99.90;;;;;;4988709;28;20068;-52
2022/03/23 05:27:03;;;;;;;152.70;73.37;;;0.20;99.90;;;;;;4989104;28;20038;-51
2022/03/23 05:29:29;;;;;;;150.05;72.38;;;0.20;99.90;;;;;;4989184;28;20026;-51
2022/03/23 05:31:55;;;;;;;161.43;74.30;;;0.30;99.90;;;;;;4988522;28;20050;-51
2022/03/23 05:34:20;;;;;;;162.85;74.40;;;0.30;99.90;;;;;;4988630;28;20026;-53
2022/03/23 05:36:46;;;;;;;155.80;72.07;;;0.40;99.90;;;;;;4989012;28;20154;-51
2022/03/23 05:39:13;;;;;;;151.00;73.38;;;0.60;99.90;;;;;;4988911;28;20029;-52
2022/03/23 05:41:39;;;;;;;139.90;69.25;;;0.60;99.90;;;;;;4988413;28;20034;-54
2022/03/23 05:44:05;;;;;;;158.50;69.10;;;0.70;99.90;;;;;;4988597;28;20030;-52
2022/03/23 05:46:31;;;;;;;139.95;68.05;;;0.70;99.90;;;;;;4988829;28;20478;-52
2022/03/23 05:48:57;;;;;;;148.65;71.70;;;0.90;99.90;;;;;;4988330;28;20030;-52
2022/03/23 05:51:23;;;;;;;148.48;72.15;;;1.00;99.90;;;;;;4971033;28;20034;-52
2022/03/23 05:53:49;;;;;;;155.98;75.57;;;1.00;99.90;;;;;;4988513;28;20065;-52
2022/03/23 05:56:15;;;;;;;163.18;75.97;;;1.10;99.90;;;;;;4989014;28;20058;-53
2022/03/23 05:58:41;;;;;;;158.45;76.85;;;1.10;99.90;;;;;;4988264;28;20481;-54
2022/03/23 06:01:06;;;;;;;164.60;79.70;;;1.30;99.90;;;;;;4970747;28;20081;-50
2022/03/23 06:03:32;;;;;;;175.82;79.25;;;1.40;99.90;;;;;;4987992;28;20037;-53
2022/03/23 06:05:58;;;;;;;172.20;84.00;;;1.40;99.90;;;;;;4988503;28;20784;-52
2022/03/23 06:08:24;;;;;;;181.05;86.93;;;1.30;99.90;;;;;;4988526;28;20042;-52
2022/03/23 06:10:49;;;;;;;174.10;86.28;;;1.40;99.90;;;;;;4988698;28;20077;-50
2022/03/23 06:13:15;;;;;;;199.45;89.18;;;1.50;99.90;;;;;;4987661;28;20516;-51
2022/03/23 06:15:42;;;;;;;188.75;88.85;;;1.70;99.90;;;;;;4988380;28;20034;-51
2022/03/23 06:18:08;;;;;;;190.10;85.55;;;1.80;99.90;;;;;;4988713;28;20097;-52
2022/03/23 06:20:34;;;;;;;182.88;90.88;;;2.00;99.90;;;;;;4988425;28;20022;-52
2022/03/23 06:22:59;;;;;;;177.88;89.97;;;2.00;99.90;;;;;;4987498;28;20041;-52
2022/03/23 06:25:25;;;;;;;193.90;95.38;;;2.10;99.90;;;;;;4988441;28;20030;-52
2022/03/23 06:27:51;;;;;;;181.75;88.25;;;2.20;99.90;;;;;;4988561;28;20046;-53
2022/03/23 06:30:16;;;;;;;178.48;88.93;;;2.30;99.90;;;;;;4988569;28;20509;-51
2022/03/23 06:32:42;;;;;;;170.00;86.18;;;2.30;99.90;;;;;;4987909;28;20482;-52
2022/03/23 06:35:08;;;;;;;199.00;96.47;;;2.50;99.90;;;;;;4988462;28;20497;-51
2022/03/23 06:37:34;;;;;;;188.57;92.22;;;2.60;99.90;;;;;;4988036;28;20037;-52
2022/03/23 06:40:00;;;;;;;184.57;88.70;;;2.70;99.90;;;;;;4970684;28;20551;-51
2022/03/23 06:42:27;;;;;;;182.90;87.65;;;2.90;99.90;;;;;;4988239;28;20038;-50
2022/03/23 06:44:53;;;;;;;188.15;90.72;;;3.10;99.90;;;;;;4988093;28;20038;-53
2022/03/23 06:47:19;;;;;;;177.48;87.10;;;3.30;99.90;;;;;;4988039;28;20479;-52
2022/03/23 06:49:44;;;;;;;181.52;86.10;;;3.40;99.90;;;;;;4988263;28;20053;-53
2022/03/23 06:52:10;;;;;;;176.00;89.78;;;3.60;99.90;;;;;;4987862;28;20526;-52
2022/03/23 06:54:36;;;;;;;200.23;88.75;;;3.80;99.90;;;;;;4988148;28;20022;-53
2022/03/23 06:57:02;;;;;;;190.20;90.57;;;3.90;99.90;;;;;;4987655;28;20033;-53
2022/03/23 06:59:28;;;;;;;182.15;81.70;;;4.10;99.90;;;;;;4988447;28;20022;-52
2022/03/23 07:01:53;;;;;;;163.90;81.05;;;4.20;99.90;;;;;;4989870;28;20041;-53
2022/03/23 07:04:19;;;;;;;158.55;77.32;;;4.30;99.90;;;;;;4991311;28;20023;-52
2022/03/23 07:06:45;;;;;;;163.63;77.85;;;4.50;99.90;;;;;;4991256;28;20116;-53
2022/03/23 07:11:55;;;;;;;182.38;84.47;;;4.90;99.90;;;;;;4991287;28;20128;-53
2022/03/23 07:14:21;;;;;;;169.40;85.50;;;5.20;99.90;;;;;;4973442;28;20501;-53
2022/03/23 07:16:47;;;;;;;170.27;82.18;;;5.30;99.90;;;;;;4991297;28;20049;-51
2022/03/23 07:19:13;;;;;;;166.45;82.32;;;5.50;99.90;;;;;;4991207;28;20029;-52
2022/03/23 07:21:39;;;;;;;171.05;80.05;;;5.60;99.90;;;;;;4991021;28;20165;-53
2022/03/23 07:24:05;;;;;;;181.52;88.90;;;5.90;99.90;;;;;;4990851;28;20072;-51
2022/03/23 07:26:31;;;;;;;176.30;86.45;;;6.10;99.90;;;;;;4990889;28;20065;-51
2022/03/23 07:28:56;;;;;;;146.20;76.40;;;6.30;99.90;;;;;;4991076;28;20076;-53
2022/03/23 07:31:22;;;;;;;156.68;77.22;;;6.60;99.90;;;;;;4991207;28;20081;-51
2022/03/23 07:33:50;;;;;;;162.77;77.30;;;6.70;99.90;;;;;;4990231;28;20058;-52
2022/03/23 07:36:16;;;;;;;152.05;78.43;;;6.90;99.90;;;;;;4991124;28;20030;-51
2022/03/23 07:38:43;;;;;;;141.43;71.22;;;7.10;99.90;;;;;;4991003;28;20029;-51
2022/03/23 07:41:08;;;;;;;144.05;73.40;;;7.40;99.90;;;;;;4991200;28;20062;-51
2022/03/23 07:43:34;;;;;;;144.57;74.70;;;7.50;99.90;;;;;;4990369;28;20061;-51
2022/03/23 07:46:00;;;;;;;165.80;80.57;;;7.50;99.90;;;;;;4990775;28;20425;-52
2022/03/23 07:48:25;;;;;;;155.07;78.13;;;7.60;99.90;;;;;;4990600;28;20041;-52
2022/03/23 07:50:51;;;;;;;158.68;79.35;;;7.80;99.90;;;;;;4990572;28;20026;-52
2022/03/23 07:53:18;;;;;;;163.15;79.80;;;8.00;99.90;;;;;;4972081;28;20034;-50
2022/03/23 07:55:44;;;;;;;152.50;76.23;;;8.10;99.90;;;;;;4990838;28;20037;-52
2022/03/23 07:58:10;;;;;;;149.18;76.57;;;8.30;99.90;;;;;;4990463;28;20269;-53
2022/03/23 08:00:36;;;;;;;139.88;77.25;;;8.50;99.90;;;;;;4990369;28;20034;-51
2022/03/23 08:03:01;;;;;;;143.57;74.72;;;8.80;99.90;;;;;;4972464;28;20544;-52
2022/03/23 08:05:28;;;;;;;133.35;69.13;;;9.00;99.90;;;;;;4990278;28;20132;-51
2022/03/23 08:07:54;;;;;;;137.77;72.45;;;9.20;99.90;;;;;;4990332;28;20120;-51
2022/03/23 08:10:20;;;;;;;139.60;74.82;;;9.40;99.90;;;;;;4990456;28;20058;-51
2022/03/23 08:12:46;;;;;;;145.20;71.25;;;9.50;99.90;;;;;;4989491;28;20057;-51
2022/03/23 08:15:11;;;;;;;130.45;68.00;;;9.60;99.40;;;;;;4989986;28;20088;-52
2022/03/23 08:17:38;;;;;;;132.07;69.82;;;9.70;98.80;;;;;;4990367;28;20026;-52
2022/03/23 08:22:58;;;;;;;113.63;62.67;;;10.50;96.90;;;;;;4989826;28;20430;-52
2022/03/23 08:25:24;;;;;;;105.07;56.75;;;11.00;94.00;;;;;;4989947;28;20080;-51
2022/03/23 08:27:50;;;;;;;103.82;58.17;;;11.70;92.30;;;;;;4989902;28;20121;-52
2022/03/23 08:30:15;;;;;;;111.07;60.42;;;12.10;90.20;;;;;;4990321;28;20034;-52
2022/03/23 08:32:41;;;;;;;104.38;53.00;;;12.80;86.60;;;;;;4989247;28;20030;-51
2022/03/23 08:35:07;;;;;;;109.07;50.78;;;13.20;78.60;;;;;;4989609;28;20035;-51
2022/03/23 08:37:33;;;;;;;97.28;50.25;;;13.60;74.40;;;;;;4989835;28;20129;-53
2022/03/23 08:39:59;;;;;;;104.57;55.33;;;14.60;69.90;;;;;;4990138;28;20034;-52
2022/03/23 08:42:25;;;;;;;94.28;49.08;;;14.70;68.30;;;;;;4989095;28;20026;-50
2022/03/23 08:44:50;;;;;;;92.20;50.75;;;16.60;65.00;;;;;;4989694;28;20496;-53
2022/03/23 08:47:17;;;;;;;102.78;52.88;;;17.00;59.90;;;;;;4989451;28;20038;-52
2022/03/23 08:49:43;;;;;;;94.30;51.05;;;17.90;56.10;;;;;;4989678;28;20027;-52
2022/03/23 08:52:09;;;;;;;90.45;51.65;;;18.20;53.90;;;;;;4989386;28;20026;-51
2022/03/23 08:54:35;;;;;;;99.75;52.97;;;19.30;53.60;;;;;;4989316;28;20081;-51
2022/03/23 08:57:00;;;;;;;95.93;51.25;;;18.80;53.70;;;;;;4989235;28;20115;-52
2022/03/23 08:59:26;;;;;;;82.57;47.40;;;18.30;52.60;;;;;;4989756;28;20030;-52
2022/03/23 09:01:52;;;;;;;83.13;48.08;;;18.70;52.00;;;;;;4989077;28;20478;-52
2022/03/23 09:04:17;;;;;;;82.45;47.95;;;18.10;49.90;;;;;;4989091;28;20112;-52
2022/03/23 09:06:43;;;;;;;87.30;49.45;;;18.00;52.80;;;;;;4989335;28;20046;-53
2022/03/23 09:09:09;;;;;;;78.90;47.63;;;17.30;51.80;;;;;;4989166;28;20113;-52
2022/03/23 09:11:35;;;;;;;70.22;40.63;;;19.40;51.00;;;;;;4988958;28;20057;-51
2022/03/23 09:14:01;;;;;;;64.75;38.92;;;19.10;49.70;;;;;;4988820;28;20054;-52
2022/03/23 09:16:27;;;;;;;67.88;38.45;;;19.30;46.50;;;;;;4988818;28;20528;-51
2022/03/23 09:18:53;;;;;;;62.20;35.78;;;19.10;48.80;;;;;;4989170;28;20034;-54
2022/03/23 09:21:21;;;;;;;58.73;36.63;;;18.40;47.70;;;;;;4988489;28;20030;-52
2022/03/23 09:23:48;;;;;;;49.85;29.88;;;19.10;46.70;;;;;;4984794;28;20032;-52
2022/03/23 09:26:14;;;;;;;50.78;29.48;;;18.70;46.20;;;;;;4986658;28;20096;-51
2022/03/23 09:28:40;;;;;;;59.05;32.80;;;20.20;44.50;;;;;;4989787;28;20092;-55
2022/03/23 09:31:06;;;;;;;52.67;29.27;;;20.40;44.50;;;;;;4989595;28;20030;-51
2022/03/23 09:33:32;;;;;;;52.90;30.73;;;20.10;43.60;;;;;;4988448;28;20065;-52
2022/03/23 09:35:58;;;;;;;48.83;26.83;;;19.20;43.60;;;;;;4987881;28;20108;-54
2022/03/23 09:38:26;;;;;;;40.42;24.48;;;20.80;40.80;;;;;;4986987;28;20030;-51
2022/03/23 09:40:52;;;;;;;30.80;17.40;;;22.00;39.40;;;;;;4987491;28;20030;-52
2022/03/23 09:43:21;;;;;;;35.80;15.60;;;21.80;36.10;;;;;;4986493;28;20034;-52
2022/03/23 09:45:47;;;;;;;28.90;16.70;;;21.10;36.60;;;;;;4986874;28;20055;-51
2022/03/23 09:48:16;;;;;;;29.80;15.82;;;21.20;35.70;;;;;;4987272;28;20034;-52
2022/03/23 09:50:46;;;;;;;29.13;16.85;;;21.80;35.10;;;;;;4987341;28;20077;-53
2022/03/23 09:53:13;;;;;;;26.15;16.90;;;21.80;35.20;;;;;;4987891;28;20030;-52
2022/03/23 09:55:38;;;;;;;29.95;17.10;;;21.80;35.60;;;;;;4988601;28;20498;-52
2022/03/23 09:58:09;;;;;;;30.77;17.40;;;20.50;35.30;;;;;;4998550;28;20041;-53
2022/03/23 10:00:40;;;;;;;36.78;20.45;;;20.00;36.60;;;;;;5008394;28;20678;-52
2022/03/23 10:03:11;;;;;;;34.28;18.90;;;19.30;38.10;;;;;;5007512;28;20030;-53
2022/03/23 10:06:11;;;;;;;34.80;18.38;;;19.00;38.70;;;;;;5008143;28;20025;-52
2022/03/23 10:09:17;;;;;;;32.50;18.77;;;19.00;38.90;;;;;;4990200;28;20444;-52
2022/03/23 10:12:21;;;;;;;32.38;17.10;;;19.90;39.40;;;;;;5008290;28;20041;-50
2022/03/23 10:15:29;;;;;;;27.38;14.05;;;20.50;39.30;;;;;;4991103;28;20041;-51
2022/03/23 10:18:17;;;;;;;31.27;16.83;;;21.40;35.30;;;;;;4969105;28;20026;-51
2022/03/23 10:20:42;;;;;;;34.17;18.00;;;21.60;32.50;;;;;;4985775;28;20026;-51
2022/03/23 10:23:08;;;;;;;28.73;15.50;;;21.60;34.00;;;;;;4988358;28;20034;-52
2022/03/23 10:25:37;;;;;;;32.30;15.57;;;22.10;33.00;;;;;;4988627;28;20918;-51
2022/03/23 10:28:14;;;;;;;30.45;16.77;;;20.60;31.70;;;;;;4988265;28;20145;-52
2022/03/23 10:30:41;;;;;;;27.67;15.18;;;20.60;33.00;;;;;;4988247;28;20561;-50
2022/03/23 10:33:23;;;;;;;;;;;20.40;32.80;;;;;;4988024;28;20690;-50
2022/03/23 10:35:50;;;;;;;26.60;14.35;;;20.90;32.90;;;;;;4989812;28;19909;-52
2022/03/23 10:38:18;;;;;;;23.80;13.38;;;21.90;32.40;;;;;;4992056;28;20038;-51
2022/03/23 10:40:46;;;;;;;23.83;13.20;;;22.30;31.10;;;;;;4991937;28;20035;-50
2022/03/23 10:43:21;;;;;;;26.38;13.55;;;22.30;29.90;;;;;;4991335;28;20616;-51
2022/03/23 10:45:47;;;;;;;24.23;12.13;;;23.10;30.40;;;;;;4991930;28;20034;-49
2022/03/23 10:48:15;;;;;;;24.35;14.52;;;23.60;28.50;;;;;;4991665;28;20057;-52
2022/03/23 10:50:56;;;;;;;27.05;14.38;;;23.00;29.70;;;;;;4991899;28;20344;-52
2022/03/23 10:53:38;;;;;;;23.75;13.48;;;22.20;29.80;;;;;;4954398;28;20133;-52
2022/03/23 10:56:04;;;;;;;25.48;14.13;;;23.40;30.60;;;;;;4976105;28;20026;-53
2022/03/23 10:58:30;;;;;;;21.85;12.80;;;22.90;28.40;;;;;;4991443;28;20031;-52
2022/03/23 11:00:59;;;;;;;19.63;10.55;;;23.80;29.90;;;;;;4991569;28;20040;-51
2022/03/23 11:03:54;;;;;;;18.92;11.55;;;23.50;27.00;;;;;;4991299;28;20023;-51
2022/03/23 11:06:27;;;;;;;17.50;9.45;;;22.60;26.70;;;;;;4981166;28;20061;-53
2022/03/23 11:08:52;;;;;;;19.88;10.13;;;22.40;26.30;;;;;;4990488;28;20026;-52
2022/03/23 11:35:27;;;;;;;20.83;9.18;;;22.40;26.40;;;;;;5028615;28;20068;-89
2022/03/23 11:37:54;;;;;;;18.40;9.95;;;23.70;25.20;;;;;;5008629;28;20033;-82
2022/03/23 11:40:20;;;;;;;19.92;10.75;;;24.10;27.80;;;;;;5024432;28;20060;-84
2022/03/23 11:42:46;;;;;;;19.83;10.43;;;23.20;25.70;;;;;;5045715;22;21154;-51
2022/03/23 11:45:13;;;;;;;20.83;9.93;;;22.80;26.70;;;;;;4991173;28;20052;-52
2022/03/23 11:47:53;;;;;;;17.38;10.45;;;22.70;27.10;;;;;;4989128;28;20131;-51
2022/03/23 11:50:38;;;;;;;18.52;9.70;;;23.10;26.10;;;;;;5009425;28;20040;-51
2022/03/23 11:54:00;;;;;;;18.65;10.60;;;23.10;27.10;;;;;;5005136;28;20029;-51
2022/03/23 11:56:35;;;;;;;18.80;9.82;;;23.10;26.70;;;;;;4987983;28;20037;-51
2022/03/23 11:59:22;;;;;;;13.88;8.63;;;23.10;27.50;;;;;;5006761;28;20104;-51
2022/03/23 12:01:50;;;;;;;17.33;10.20;;;23.60;27.00;;;;;;5007935;28;20037;-53
2022/03/23 12:04:23;;;;;;;20.85;8.57;;;23.80;29.20;;;;;;5004667;28;20054;-50
2022/03/23 12:07:06;;;;;;;16.77;9.38;;;24.00;26.80;;;;;;5009370;28;20042;-51
2022/03/23 12:09:41;;;;;;;19.17;10.02;;;24.10;26.30;;;;;;5009429;28;20436;-52
2022/03/23 12:12:13;;;;;;;18.17;9.40;;;24.00;25.50;;;;;;5009544;28;20030;-50
2022/03/23 12:14:40;;;;;;;13.50;7.78;;;24.20;27.30;;;;;;5005442;28;20408;-51
2022/03/23 12:17:32;;;;;;;14.85;7.93;;;24.40;26.60;;;;;;5009655;28;20026;-50
2022/03/23 12:20:03;;;;;;;12.40;7.22;;;24.50;25.50;;;;;;5000147;28;20048;-51
2022/03/23 12:22:34;;;;;;;16.00;7.68;;;24.60;26.50;;;;;;4970686;28;20039;-52
2022/03/23 12:25:04;;;;;;;15.48;7.90;;;24.70;24.80;;;;;;4971010;28;20031;-51
2022/03/23 12:27:49;;;;;;;13.85;6.65;;;24.60;25.40;;;;;;4970357;28;20085;-50
2022/03/23 12:30:30;;;;;;;13.55;7.70;;;24.80;24.40;;;;;;4971191;28;20051;-51
2022/03/23 12:33:07;;;;;;;11.75;6.22;;;24.80;25.40;;;;;;4970418;28;20050;-50
2022/03/23 12:35:34;;;;;;;11.55;6.45;;;24.80;25.40;;;;;;4988088;28;20029;-51
2022/03/23 12:38:02;;;;;;;16.85;7.32;;;24.90;24.80;;;;;;5008945;28;20071;-52
2022/03/23 12:40:42;;;;;;;13.10;6.95;;;24.80;24.50;;;;;;5010514;28;20037;-51
2022/03/23 12:43:08;;;;;;;16.00;6.47;;;24.80;24.60;;;;;;5009096;28;20042;-51
2022/03/23 12:45:39;;;;;;;14.95;7.47;;;24.30;22.90;;;;;;5009453;28;20040;-51
2022/03/23 12:57:49;;;;;;;14.27;8.18;;;24.20;24.10;;;;;;5008846;28;20168;-50
2022/03/23 12:59:25;;;;;;;14.95;6.95;;;24.80;24.10;;;;;;4989469;28;20060;-51
2022/03/23 13:01:55;;;;;;;12.18;6.70;;;24.70;24.40;;;;;;4989258;28;20044;-52
2022/03/23 13:04:42;;;;;;;10.95;6.28;;;24.90;25.10;;;;;;4971928;28;20145;-52
2022/03/23 13:07:29;;;;;;;13.90;6.57;;;24.90;25.20;;;;;;4989601;28;20034;-52
2022/03/23 13:10:15;;;;;;;11.70;5.80;;;24.90;24.10;;;;;;4989277;28;20022;-51
2022/03/23 13:12:44;;;;;;;16.05;5.85;;;24.80;23.10;;;;;;4989033;28;20022;-51
2022/03/23 13:15:21;;;;;;;13.93;5.78;;;24.10;22.80;;;;;;4972237;28;20061;-52
2022/03/23 13:17:47;;;;;;;10.57;5.20;;;23.90;23.20;;;;;;4989188;28;20652;-52
2022/03/23 13:20:15;;;;;;;10.95;5.53;;;23.70;22.20;;;;;;4988966;28;20030;-52